createdAt,value
2024-03-15T00:00:54.522Z,99740.16
2024-03-15T00:03:22.400Z,99742.69
2024-03-15T00:05:48.972Z,99746.09
2024-03-15T00:08:15.516Z,99747.00
2024-03-15T00:10:42.075Z,99741.81
2024-03-15T00:13:08.701Z,99737.47
2024-03-15T00:15:35.300Z,99743.53
2024-03-15T00:18:02.467Z,99744.38
2024-03-15T00:20:29.095Z,99745.94
2024-03-15T00:22:55.605Z,99746.84
2024-03-15T00:25:22.661Z,99740.94
2024-03-15T00:27:49.947Z,99740.13
2024-03-15T00:30:16.815Z,99735.91
2024-03-15T00:32:43.700Z,99739.34
2024-03-15T00:35:10.502Z,99737.63
2024-03-15T00:37:37.511Z,99740.19
2024-03-15T00:40:04.970Z,99736.78
2024-03-15T00:42:31.993Z,99732.50
2024-03-15T00:44:59.071Z,99725.59
2024-03-15T00:47:25.835Z,99726.53
2024-03-15T00:49:52.431Z,99723.91
2024-03-15T00:52:19.136Z,99716.13
2024-03-15T00:54:47.320Z,99714.38
2024-03-15T00:57:14.767Z,99709.25
2024-03-15T00:59:41.369Z,99716.09
2024-03-15T01:02:07.958Z,99706.50
2024-03-15T01:04:36.092Z,99712.50
2024-03-15T01:07:03.246Z,99706.44
2024-03-15T01:09:31.052Z,99712.47
2024-03-15T01:11:58.359Z,99704.69
2024-03-15T01:14:24.966Z,99708.91
2024-03-15T01:16:51.572Z,99704.50
2024-03-15T01:19:18.205Z,99707.03
2024-03-15T01:21:45.010Z,99704.41
2024-03-15T01:24:14.075Z,99698.38
2024-03-15T01:26:41.239Z,99707.75
2024-03-15T01:29:09.142Z,99713.75
2024-03-15T01:31:37.110Z,99699.13
2024-03-15T01:34:03.862Z,99711.94
2024-03-15T01:36:30.588Z,99717.88
2024-03-15T01:38:57.222Z,99710.97
2024-03-15T01:41:23.778Z,99705.75
2024-03-15T01:43:50.289Z,99695.38
2024-03-15T01:46:17.592Z,99696.34
2024-03-15T01:48:45.876Z,99705.81
2024-03-15T01:51:13.312Z,99716.84
2024-03-15T01:53:40.879Z,99697.19
2024-03-15T01:56:07.669Z,99711.88
2024-03-15T01:58:34.268Z,99708.41
2024-03-15T02:01:01.051Z,99713.47
2024-03-15T02:03:31.171Z,99708.22
2024-03-15T02:05:57.840Z,99715.09
2024-03-15T02:08:25.531Z,99722.78
2024-03-15T02:10:52.645Z,99723.59
2024-03-15T02:13:19.254Z,99712.53
2024-03-15T02:15:46.025Z,99717.47
2024-03-15T02:18:12.824Z,99715.72
2024-03-15T02:20:39.402Z,99721.69
2024-03-15T02:23:06.016Z,99718.25
2024-03-15T02:25:33.099Z,99722.50
2024-03-15T02:27:59.787Z,99732.72
2024-03-15T02:30:26.975Z,99715.63
2024-03-15T02:32:53.836Z,99726.69
2024-03-15T02:35:27.778Z,99732.66
2024-03-15T02:37:59.156Z,99725.69
2024-03-15T02:40:25.821Z,99727.50
2024-03-15T02:42:53.238Z,99729.16
2024-03-15T02:45:22.593Z,99732.47
2024-03-15T02:47:49.785Z,99717.75
2024-03-15T02:50:16.525Z,99724.69
2024-03-15T02:52:44.939Z,99733.28
2024-03-15T02:55:12.416Z,99732.50
2024-03-15T02:57:39.489Z,99734.19
2024-03-15T03:00:07.045Z,99743.38
2024-03-15T03:02:33.658Z,99725.41
2024-03-15T03:05:00.253Z,99742.47
2024-03-15T03:07:26.990Z,99731.13
2024-03-15T03:09:53.850Z,99737.09
2024-03-15T03:12:20.584Z,99732.66
2024-03-15T03:14:47.229Z,99745.44
2024-03-15T03:17:15.855Z,99742.81
2024-03-15T03:19:42.708Z,99738.38
2024-03-15T03:22:09.476Z,99741.66
2024-03-15T03:24:36.231Z,99713.25
2024-03-15T03:27:02.854Z,99736.34
2024-03-15T03:29:30.053Z,99741.38
2024-03-15T03:31:56.885Z,99743.84
2024-03-15T03:34:24.017Z,99736.03
2024-03-15T03:36:50.919Z,99741.09
2024-03-15T03:39:19.421Z,99741.06
2024-03-15T03:41:46.033Z,99735.09
2024-03-15T03:44:12.558Z,99742.72
2024-03-15T03:46:39.090Z,99746.25
2024-03-15T03:49:05.621Z,99747.88
2024-03-15T03:51:32.769Z,99741.06
2024-03-15T03:53:59.511Z,99742.63
2024-03-15T03:56:26.268Z,99749.66
2024-03-15T03:58:53.749Z,99740.03
2024-03-15T04:01:20.423Z,99750.19
2024-03-15T04:03:50.780Z,99746.81
2024-03-15T04:06:17.659Z,99751.75
2024-03-15T04:08:45.348Z,99749.91
2024-03-15T04:11:12.208Z,99749.81
2024-03-15T04:13:38.848Z,99752.38
2024-03-15T04:16:05.758Z,99756.75
2024-03-15T04:18:34.509Z,99757.63
2024-03-15T04:21:01.542Z,99757.59
2024-03-15T04:23:28.233Z,99757.66
2024-03-15T04:25:56.416Z,99754.16
2024-03-15T04:28:23.409Z,99753.19
2024-03-15T04:30:50.326Z,99763.44
2024-03-15T04:33:18.428Z,99754.88
2024-03-15T04:35:45.198Z,99757.53
2024-03-15T04:38:11.718Z,99761.66
2024-03-15T04:40:38.255Z,99747.16
2024-03-15T04:43:05.251Z,99768.38
2024-03-15T04:45:31.907Z,99766.59
2024-03-15T04:47:59.233Z,99763.91
2024-03-15T04:50:26.166Z,99768.00
2024-03-15T04:52:53.742Z,99759.41
2024-03-15T04:55:23.526Z,99769.63
2024-03-15T04:57:51.047Z,99770.44
2024-03-15T05:00:21.548Z,99771.16
2024-03-15T05:02:49.844Z,99766.78
2024-03-15T05:05:17.632Z,99775.44
2024-03-15T05:07:45.364Z,99779.81
2024-03-15T05:10:18.984Z,99773.72
2024-03-15T05:12:46.723Z,99777.97
2024-03-15T05:15:14.314Z,99776.22
2024-03-15T05:17:41.584Z,99770.44
2024-03-15T05:20:14.697Z,99771.28
2024-03-15T05:22:45.536Z,99784.09
2024-03-15T05:25:15.549Z,99767.97
2024-03-15T05:27:42.335Z,99781.00
2024-03-15T05:30:09.943Z,99776.75
2024-03-15T05:32:36.752Z,99782.84
2024-03-15T05:35:03.456Z,99777.72
2024-03-15T05:37:30.298Z,99781.19
2024-03-15T05:39:57.143Z,99776.94
2024-03-15T05:42:23.800Z,99776.28
2024-03-15T05:44:50.535Z,99768.75
2024-03-15T05:47:17.815Z,99775.66
2024-03-15T05:49:44.575Z,99774.09
2024-03-15T05:52:15.970Z,99769.81
2024-03-15T05:54:43.119Z,99776.69
2024-03-15T05:57:10.104Z,99775.13
2024-03-15T05:59:36.998Z,99784.78
2024-03-15T06:02:04.046Z,99784.16
2024-03-15T06:04:33.951Z,99792.13
2024-03-15T06:07:01.337Z,99796.56
2024-03-15T06:09:30.799Z,99792.50
2024-03-15T06:11:57.573Z,99795.34
2024-03-15T06:14:26.037Z,99788.69
2024-03-15T06:16:52.571Z,99797.47
2024-03-15T06:19:20.561Z,99799.28
2024-03-15T06:21:49.622Z,99787.47
2024-03-15T06:24:21.053Z,99791.97
2024-03-15T06:26:57.058Z,99800.69
2024-03-15T06:29:32.269Z,99798.34
2024-03-15T06:31:59.384Z,99790.84
2024-03-15T06:34:26.146Z,99803.78
2024-03-15T06:36:55.670Z,99802.34
2024-03-15T06:39:37.716Z,99799.88
2024-03-15T06:42:23.584Z,99803.44
2024-03-15T06:45:04.689Z,99801.00
2024-03-15T06:47:34.488Z,99804.53
2024-03-15T06:50:29.990Z,99802.91
2024-03-15T06:52:56.481Z,99802.19
2024-03-15T06:55:23.080Z,99807.41
2024-03-15T06:57:50.103Z,99799.69
2024-03-15T07:00:17.348Z,99805.81
2024-03-15T07:02:44.943Z,99804.97
2024-03-15T07:05:12.868Z,99805.84
2024-03-15T07:07:39.803Z,99804.13
2024-03-15T07:10:07.057Z,99808.44
2024-03-15T07:12:34.108Z,99805.88
2024-03-15T07:15:00.892Z,99809.31
2024-03-15T07:17:27.798Z,99809.31
2024-03-15T07:19:57.047Z,99813.59
2024-03-15T07:22:27.142Z,99806.69
2024-03-15T07:24:54.032Z,99805.81
2024-03-15T07:27:22.141Z,99817.88
2024-03-15T07:29:48.701Z,99810.97
2024-03-15T07:32:15.195Z,99816.13
2024-03-15T07:34:41.741Z,99810.06
2024-03-15T07:37:08.350Z,99815.19
2024-03-15T07:39:34.964Z,99806.56
2024-03-15T07:42:01.605Z,99822.00
2024-03-15T07:44:29.437Z,99816.81
2024-03-15T07:46:59.228Z,99821.06
2024-03-15T07:49:26.293Z,99818.44
2024-03-15T07:51:53.094Z,99814.97
2024-03-15T07:54:20.112Z,99822.66
2024-03-15T07:56:46.721Z,99823.38
2024-03-15T07:59:14.256Z,99823.38
2024-03-15T08:01:42.486Z,99825.13
2024-03-15T08:04:10.439Z,99820.66
2024-03-15T08:06:38.444Z,99814.66
2024-03-15T08:09:06.302Z,99817.19
2024-03-15T08:11:36.986Z,99828.34
2024-03-15T08:14:04.185Z,99820.50
2024-03-15T08:16:37.421Z,99829.84
2024-03-15T08:19:05.713Z,99829.78
2024-03-15T08:21:32.639Z,99823.69
2024-03-15T08:24:05.557Z,99826.22
2024-03-15T08:26:33.718Z,99833.06
2024-03-15T08:29:04.016Z,99826.06
2024-03-15T08:31:33.500Z,99829.47
2024-03-15T08:34:05.162Z,99824.22
2024-03-15T08:36:33.780Z,99826.88
2024-03-15T08:39:00.324Z,99822.50
2024-03-15T08:41:27.349Z,99825.78
2024-03-15T08:43:53.959Z,99823.06
2024-03-15T08:46:20.637Z,99821.28
2024-03-15T08:48:47.427Z,99815.00
2024-03-15T08:51:15.083Z,99811.25
2024-03-15T08:53:43.027Z,99818.88
2024-03-15T08:56:09.817Z,99812.47
2024-03-15T08:58:36.325Z,99816.00
2024-03-15T09:01:06.073Z,99812.06
2024-03-15T09:03:39.308Z,99810.22
2024-03-15T09:06:10.204Z,99815.00
2024-03-15T09:08:36.920Z,99814.66
2024-03-15T09:11:04.589Z,99821.25
2024-03-15T09:13:34.110Z,99818.00
2024-03-15T09:16:03.584Z,99822.81
2024-03-15T09:18:30.471Z,99815.16
2024-03-15T09:20:58.023Z,99813.22
2024-03-15T09:23:25.359Z,99814.88
2024-03-15T09:25:51.961Z,99810.22
2024-03-15T09:28:19.750Z,99814.63
2024-03-15T09:31:04.039Z,99813.75
2024-03-15T09:33:38.017Z,99809.91
2024-03-15T09:36:06.549Z,99797.22
2024-03-15T09:38:36.229Z,99805.53
2024-03-15T09:41:02.856Z,99795.09
2024-03-15T09:43:31.559Z,99790.59
2024-03-15T09:45:59.017Z,99800.03
2024-03-15T09:48:26.842Z,99803.28
2024-03-15T09:50:54.175Z,99797.66
2024-03-15T09:53:20.980Z,99799.28
2024-03-15T09:55:54.025Z,99798.28
2024-03-15T09:58:22.202Z,99805.41
2024-03-15T10:00:49.308Z,99802.31
2024-03-15T10:03:16.960Z,99799.13
2024-03-15T10:05:44.452Z,99797.66
2024-03-15T10:08:12.181Z,99799.53
2024-03-15T10:10:40.658Z,99802.41
2024-03-15T10:13:07.301Z,99790.69
2024-03-15T10:15:34.093Z,99789.59
2024-03-15T10:18:00.773Z,99790.06
2024-03-15T10:20:27.399Z,99783.22
2024-03-15T10:22:56.022Z,99785.97
2024-03-15T10:25:25.915Z,99783.59
2024-03-15T10:27:56.898Z,99788.44
2024-03-15T10:30:29.844Z,99784.41
2024-03-15T10:32:59.882Z,99767.50
2024-03-15T10:35:29.328Z,99775.47
2024-03-15T10:37:56.806Z,99779.06
2024-03-15T10:40:26.062Z,99773.00
2024-03-15T10:42:54.290Z,99780.31
2024-03-15T10:45:27.216Z,99776.59
2024-03-15T10:47:55.180Z,99778.38
2024-03-15T10:50:28.913Z,99781.44
2024-03-15T10:52:57.890Z,99765.75
2024-03-15T10:55:31.166Z,99773.38
2024-03-15T10:58:00.473Z,99767.25
2024-03-15T11:00:30.791Z,99770.78
2024-03-15T11:03:14.790Z,99769.56
2024-03-15T11:05:41.423Z,99769.94
2024-03-15T11:08:16.163Z,99763.19
2024-03-15T11:10:57.119Z,99766.47
2024-03-15T11:13:27.388Z,99757.03
2024-03-15T11:15:54.391Z,99766.72
2024-03-15T11:18:21.466Z,99757.44
2024-03-15T11:20:48.228Z,99765.38
2024-03-15T11:23:26.219Z,99762.72
2024-03-15T11:26:00.901Z,99761.38
2024-03-15T11:28:32.771Z,99754.44
2024-03-15T11:31:00.027Z,99746.84
2024-03-15T11:33:28.025Z,99750.31
2024-03-15T11:35:56.254Z,99752.50
2024-03-15T11:38:23.343Z,99739.72
2024-03-15T11:40:55.080Z,99750.13
2024-03-15T11:43:21.722Z,99743.13
2024-03-15T11:45:48.982Z,99747.81
2024-03-15T11:48:17.171Z,99736.84
2024-03-15T11:50:45.986Z,99740.53
2024-03-15T11:53:13.942Z,99732.50
2024-03-15T11:55:44.181Z,99736.19
2024-03-15T11:58:15.301Z,99733.09
2024-03-15T12:00:42.881Z,99727.09
2024-03-15T12:03:12.333Z,99719.50
2024-03-15T12:05:43.062Z,99723.69
2024-03-15T12:08:14.351Z,99725.59
2024-03-15T12:10:41.486Z,99728.28
2024-03-15T12:13:23.421Z,99721.72
2024-03-15T12:15:52.323Z,99725.75
2024-03-15T12:18:24.832Z,99721.88
2024-03-15T12:20:52.960Z,99719.34
2024-03-15T12:23:21.489Z,99722.72
2024-03-15T12:25:49.555Z,99717.22
2024-03-15T12:28:20.908Z,99717.88
2024-03-15T12:30:50.129Z,99713.00
2024-03-15T12:33:17.046Z,99716.28
2024-03-15T12:35:45.083Z,99711.41
2024-03-15T12:38:19.640Z,99709.56
2024-03-15T12:40:46.656Z,99705.84
2024-03-15T12:43:13.547Z,99703.50
2024-03-15T12:45:42.653Z,99705.19
2024-03-15T12:48:13.247Z,99708.63
2024-03-15T12:50:41.491Z,99692.91
2024-03-15T12:53:13.570Z,99701.59
2024-03-15T12:55:41.506Z,99697.75
2024-03-15T12:58:09.159Z,99698.50
2024-03-15T13:00:36.164Z,99701.16
2024-03-15T13:03:05.437Z,99694.84
2024-03-15T13:05:32.048Z,99692.25
2024-03-15T13:07:58.578Z,99689.75
2024-03-15T13:10:25.185Z,99695.22
2024-03-15T13:12:53.791Z,99693.38
2024-03-15T13:15:20.930Z,99687.38
2024-03-15T13:17:55.817Z,99690.94
2024-03-15T13:20:23.476Z,99688.97
2024-03-15T13:22:54.577Z,99697.69
2024-03-15T13:25:34.529Z,99692.19
2024-03-15T13:28:06.021Z,99686.00
2024-03-15T13:30:33.665Z,99679.88
2024-03-15T13:33:02.578Z,99690.16
2024-03-15T13:35:30.351Z,99680.78
2024-03-15T13:37:57.059Z,99681.47
2024-03-15T13:40:25.896Z,99685.97
2024-03-15T13:42:54.003Z,99680.88
2024-03-15T13:45:23.459Z,99682.22
2024-03-15T13:48:30.731Z,99681.09
2024-03-15T13:50:58.390Z,99679.47
2024-03-15T13:53:24.867Z,99675.41
2024-03-15T13:55:51.528Z,99655.59
2024-03-15T13:58:18.792Z,99666.63
2024-03-15T14:00:45.586Z,99668.19
2024-03-15T14:03:17.387Z,99666.31
2024-03-15T14:05:43.936Z,99673.59
2024-03-15T14:08:21.212Z,99670.44
2024-03-15T14:10:48.251Z,99672.03
2024-03-15T14:13:17.152Z,99664.59
2024-03-15T14:15:44.156Z,99656.56
2024-03-15T14:18:13.273Z,99666.91
2024-03-15T14:20:42.731Z,99663.75
2024-03-15T14:23:09.512Z,99665.13
2024-03-15T14:25:36.075Z,99668.50
2024-03-15T14:28:11.334Z,99659.38
2024-03-15T14:30:38.822Z,99663.59
2024-03-15T14:33:09.889Z,99661.28
2024-03-15T14:35:37.458Z,99657.34
2024-03-15T14:38:09.545Z,99658.78
2024-03-15T14:40:38.641Z,99659.31
2024-03-15T14:43:08.547Z,99662.72
2024-03-15T14:45:36.992Z,99661.75
2024-03-15T14:48:12.442Z,99664.38
2024-03-15T14:50:41.196Z,99660.88
2024-03-15T14:53:08.107Z,99661.41
2024-03-15T14:55:35.348Z,99658.97
2024-03-15T14:58:04.451Z,99658.31
2024-03-15T15:00:32.279Z,99654.91
2024-03-15T15:02:59.410Z,99669.13
2024-03-15T15:05:26.124Z,99661.16
2024-03-15T15:07:52.962Z,99658.59
2024-03-15T15:10:19.765Z,99666.88
2024-03-15T15:12:46.434Z,99652.16
2024-03-15T15:15:17.520Z,99663.22
2024-03-15T15:17:46.852Z,99663.66
2024-03-15T15:20:16.703Z,99657.09
2024-03-15T15:22:44.029Z,99668.88
2024-03-15T15:25:12.007Z,99652.72
2024-03-15T15:27:44.126Z,99649.50
2024-03-15T15:30:18.124Z,99642.00
2024-03-15T15:32:45.310Z,99663.41
2024-03-15T15:35:14.434Z,99664.97
2024-03-15T15:37:41.826Z,99665.06
2024-03-15T15:40:18.497Z,99662.25
2024-03-15T15:42:50.078Z,99664.22
2024-03-15T15:45:18.643Z,99667.00
2024-03-15T15:47:46.183Z,99670.69
2024-03-15T15:50:19.642Z,99666.59
2024-03-15T15:52:47.791Z,99665.84
2024-03-15T15:55:15.732Z,99664.34
2024-03-15T15:57:46.708Z,99651.81
2024-03-15T16:00:20.967Z,99662.09
2024-03-15T16:02:48.799Z,99675.25
2024-03-15T16:05:15.803Z,99675.78
2024-03-15T16:07:45.552Z,99675.94
2024-03-15T16:10:17.076Z,99671.56
2024-03-15T16:12:45.076Z,99675.06
2024-03-15T16:15:12.072Z,99664.56
2024-03-15T16:17:38.821Z,99672.66
2024-03-15T16:20:05.824Z,99674.59
2024-03-15T16:22:34.522Z,99670.16
2024-03-15T16:25:02.364Z,99678.25
2024-03-15T16:27:29.155Z,99668.97
2024-03-15T16:29:56.776Z,99675.25
2024-03-15T16:32:24.007Z,99681.63
2024-03-15T16:34:51.525Z,99679.13
2024-03-15T16:37:18.491Z,99673.22
2024-03-15T16:39:46.004Z,99687.31
2024-03-15T16:42:14.023Z,99681.34
2024-03-15T16:44:41.217Z,99681.53
2024-03-15T16:47:07.858Z,99683.44
2024-03-15T16:49:34.538Z,99687.97
2024-03-15T16:52:01.288Z,99696.34
2024-03-15T16:54:28.360Z,99697.47
2024-03-15T16:56:56.262Z,99692.34
2024-03-15T16:59:22.786Z,99701.81
2024-03-15T17:01:49.404Z,99706.22
2024-03-15T17:04:16.024Z,99705.50
2024-03-15T17:06:42.713Z,99711.66
2024-03-15T17:09:14.430Z,99715.28
2024-03-15T17:11:41.784Z,99715.56
2024-03-15T17:14:08.460Z,99714.84
2024-03-15T17:16:35.071Z,99720.81
2024-03-15T17:19:03.681Z,99722.50
2024-03-15T17:21:30.495Z,99725.22
2024-03-15T17:23:57.278Z,99728.66
2024-03-15T17:26:23.869Z,99725.25
2024-03-15T17:28:50.406Z,99715.91
2024-03-15T17:31:16.886Z,99724.78
2024-03-15T17:33:43.500Z,99720.66
2024-03-15T17:36:10.361Z,99728.41
2024-03-15T17:38:36.946Z,99718.84
2024-03-15T17:41:04.058Z,99728.63
2024-03-15T17:43:30.626Z,99730.47
2024-03-15T17:45:57.241Z,99728.00
2024-03-15T17:48:23.903Z,99732.38
2024-03-15T17:50:50.493Z,99721.22
2024-03-15T17:53:17.120Z,99736.00
2024-03-15T17:55:43.872Z,99740.38
2024-03-15T17:58:10.883Z,99718.00
2024-03-15T18:00:37.749Z,99739.28
2024-03-15T18:03:05.314Z,99744.44
2024-03-15T18:05:33.234Z,99750.41
2024-03-15T18:08:00.280Z,99746.03
2024-03-15T18:10:27.052Z,99742.63
2024-03-15T18:12:54.521Z,99750.66
2024-03-15T18:15:22.571Z,99761.06
2024-03-15T18:17:49.626Z,99757.72
2024-03-15T18:20:17.191Z,99753.44
2024-03-15T18:22:43.663Z,99763.91
2024-03-15T18:25:12.243Z,99752.84
2024-03-15T18:27:39.133Z,99757.97
2024-03-15T18:30:06.682Z,99765.84
2024-03-15T18:32:33.444Z,99752.97
2024-03-15T18:35:00.420Z,99764.22
2024-03-15T18:37:27.680Z,99768.78
2024-03-15T18:39:56.449Z,99768.88
2024-03-15T18:42:24.378Z,99765.50
2024-03-15T18:44:51.210Z,99769.81
2024-03-15T18:47:17.813Z,99771.66
2024-03-15T18:49:44.341Z,99773.41
2024-03-15T18:52:11.957Z,99770.81
2024-03-15T18:54:38.741Z,99778.63
2024-03-15T18:57:07.270Z,99776.84
2024-03-15T18:59:37.895Z,99781.19
2024-03-15T19:02:06.379Z,99776.03
2024-03-15T19:04:33.562Z,99775.38
2024-03-15T19:07:00.678Z,99789.22
2024-03-15T19:09:27.366Z,99782.31
2024-03-15T19:11:54.123Z,99773.72
2024-03-15T19:14:21.979Z,99768.56
2024-03-15T19:16:48.538Z,99771.16
2024-03-15T19:19:15.291Z,99766.84
2024-03-15T19:21:42.138Z,99765.16
2024-03-15T19:24:09.117Z,99767.75
2024-03-15T19:26:36.159Z,99776.38
2024-03-15T19:29:04.118Z,99774.69
2024-03-15T19:31:30.888Z,99779.84
2024-03-15T19:33:57.545Z,99778.09
2024-03-15T19:36:24.235Z,99773.84
2024-03-15T19:38:50.872Z,99773.00
2024-03-15T19:41:17.922Z,99779.06
2024-03-15T19:43:45.476Z,99768.78
2024-03-15T19:46:12.265Z,99774.78
2024-03-15T19:48:39.173Z,99773.91
2024-03-15T19:51:05.811Z,99772.22
2024-03-15T19:53:33.061Z,99772.19
2024-03-15T19:55:59.935Z,99778.22
2024-03-15T19:58:29.917Z,99772.22
2024-03-15T20:00:58.848Z,99779.06
2024-03-15T20:03:25.712Z,99771.34
2024-03-15T20:05:56.072Z,99770.50
2024-03-15T20:08:23.949Z,99767.09
2024-03-15T20:10:51.050Z,99769.66
2024-03-15T20:13:17.945Z,99767.06
2024-03-15T20:15:45.613Z,99770.50
2024-03-15T20:18:12.483Z,99761.91
2024-03-15T20:20:40.623Z,99758.44
2024-03-15T20:23:08.074Z,99747.22
2024-03-15T20:25:34.814Z,99761.03
2024-03-15T20:28:04.342Z,99766.19
2024-03-15T20:30:31.633Z,99773.03
2024-03-15T20:32:59.599Z,99774.78
2024-03-15T20:35:29.306Z,99776.53
2024-03-15T20:37:57.639Z,99778.25
2024-03-15T20:40:27.884Z,99779.94
2024-03-15T20:42:55.961Z,99778.22
2024-03-15T20:45:23.804Z,99791.16
2024-03-15T20:47:51.116Z,99785.16
2024-03-15T20:50:18.387Z,99790.34
2024-03-15T20:52:45.616Z,99783.47
2024-03-15T20:55:12.456Z,99791.22
2024-03-15T20:57:39.205Z,99789.50
2024-03-15T21:00:08.784Z,99789.50
2024-03-15T21:02:35.440Z,99784.34
2024-03-15T21:05:01.923Z,99788.66
2024-03-15T21:07:28.660Z,99792.09
2024-03-15T21:09:55.300Z,99786.91
2024-03-15T21:12:27.327Z,99796.41
2024-03-15T21:14:53.960Z,99799.84
2024-03-15T21:17:20.533Z,99797.25
2024-03-15T21:19:49.957Z,99797.22
2024-03-15T21:22:16.635Z,99801.53
2024-03-15T21:24:43.798Z,99800.69
2024-03-15T21:27:10.348Z,99802.44
2024-03-15T21:29:36.870Z,99798.97
2024-03-15T21:32:05.076Z,99805.88
2024-03-15T21:34:31.690Z,99807.59
2024-03-15T21:36:58.563Z,99808.44
2024-03-15T21:39:25.797Z,99819.63
2024-03-15T21:41:52.483Z,99818.78
2024-03-15T21:44:19.143Z,99807.59
2024-03-15T21:46:47.637Z,99816.19
2024-03-15T21:49:14.955Z,99809.31
2024-03-15T21:51:41.623Z,99815.31
2024-03-15T21:54:08.271Z,99825.66
2024-03-15T21:56:34.864Z,99823.94
2024-03-15T21:59:06.212Z,99826.53
2024-03-15T22:01:36.401Z,99823.06
2024-03-15T22:04:07.428Z,99818.78
2024-03-15T22:06:39.269Z,99827.41
2024-03-15T22:09:06.154Z,99823.06
2024-03-15T22:11:32.679Z,99826.53
2024-03-15T22:14:00.941Z,99820.50
2024-03-15T22:16:29.544Z,99820.50
2024-03-15T22:18:57.281Z,99818.78
2024-03-15T22:21:24.382Z,99816.19
2024-03-15T22:23:50.994Z,99815.34
2024-03-15T22:26:18.157Z,99817.06
2024-03-15T22:28:44.777Z,99814.47
2024-03-15T22:31:12.074Z,99820.50
2024-03-15T22:33:39.848Z,99815.31
2024-03-15T22:36:10.263Z,99807.59
2024-03-15T22:38:37.246Z,99821.34
2024-03-15T22:41:03.944Z,99823.06
2024-03-15T22:43:30.998Z,99823.06
2024-03-15T22:45:58.736Z,99812.75
2024-03-15T22:48:25.431Z,99810.19
2024-03-15T22:50:52.125Z,99820.50
2024-03-15T22:53:18.757Z,99812.75
2024-03-15T22:55:48.151Z,99817.94
2024-03-15T22:58:14.846Z,99818.75
2024-03-15T23:00:44.523Z,99823.94
2024-03-15T23:03:11.254Z,99822.22
2024-03-15T23:05:37.995Z,99824.81
2024-03-15T23:08:04.781Z,99822.19
2024-03-15T23:10:31.330Z,99811.88
2024-03-15T23:13:00.531Z,99823.91
2024-03-15T23:15:27.805Z,99826.47
2024-03-15T23:17:55.969Z,99822.22
2024-03-15T23:20:22.705Z,99828.19
2024-03-15T23:22:50.286Z,99826.50
2024-03-15T23:25:18.962Z,99830.78
2024-03-15T23:27:46.881Z,99826.47
2024-03-15T23:30:13.663Z,99828.16
2024-03-15T23:32:40.521Z,99820.47
2024-03-15T23:35:09.246Z,99807.53
2024-03-15T23:37:36.004Z,99810.94
2024-03-15T23:40:02.817Z,99823.81
2024-03-15T23:42:29.711Z,99820.38
2024-03-15T23:44:56.244Z,99818.66
2024-03-15T23:47:23.951Z,99814.34
2024-03-15T23:49:50.530Z,99817.84
2024-03-15T23:52:17.862Z,99826.38
2024-03-15T23:54:45.165Z,99839.31
2024-03-15T23:57:11.884Z,99822.09
2024-03-15T23:59:38.433Z,99828.13
